Time;durP1;ratioP1;P1;durP2;ratioP2;P2;SDS_P1;SDS_P2;PMS_P1;PMS_P2;Temp;Humidity;BMP_temperature;BMP_pressure;BME280_temperature;BME280_humidity;BME280_pressure;Samples;Min_cycle;Max_cycle;Signal;HPM_P1;HPM_P2
2022/09/26 00:01:09;;;;;;;;;;;13.10;99.90;;;;;;5054503;28;20428;-87
2022/09/26 00:03:35;;;;;;;8.73;5.68;;;13.10;99.90;;;;;;5053710;28;19912;-87
2022/09/26 00:06:05;;;;;;;;;;;13.10;99.90;;;;;;5053950;28;20029;-87
2022/09/26 00:08:31;;;;;;;6.50;5.22;;;13.10;99.90;;;;;;5053620;28;20440;-87
2022/09/26 00:11:00;;;;;;;6.57;4.85;;;13.10;99.90;;;;;;5053080;28;20057;-85
2022/09/26 00:13:27;;;;;;;12.60;5.10;;;13.10;99.90;;;;;;5053221;28;20025;-85
2022/09/26 00:15:54;;;;;;;9.40;5.65;;;13.20;99.90;;;;;;5053220;28;20033;-86
2022/09/26 00:18:20;;;;;;;6.68;4.28;;;13.20;99.90;;;;;;5053260;28;20036;-86
2022/09/26 00:20:46;;;;;;;8.50;4.78;;;13.20;99.90;;;;;;5053308;28;20505;-86
2022/09/26 00:23:12;;;;;;;5.63;4.40;;;13.20;99.90;;;;;;5054357;28;20020;-88
2022/09/26 00:25:43;;;;;;;;;;;13.30;99.90;;;;;;5053515;28;20029;-87
2022/09/26 00:28:09;;;;;;;8.48;4.45;;;13.40;99.90;;;;;;5055863;28;19958;-86
2022/09/26 00:30:35;;;;;;;;;;;13.40;99.90;;;;;;5053805;28;20029;-86
2022/09/26 00:33:00;;;;;;;8.10;4.63;;;13.30;99.90;;;;;;5053025;28;19920;-87
2022/09/26 00:35:26;;;;;;;;;;;13.30;99.90;;;;;;5053628;28;20105;-88
2022/09/26 00:37:52;;;;;;;10.07;5.68;;;13.30;99.90;;;;;;5052588;28;19905;-85
2022/09/26 00:40:17;;;;;;;;;;;13.20;99.90;;;;;;5052969;28;20025;-86
2022/09/26 00:42:43;;;;;;;4.97;4.13;;;13.20;99.90;;;;;;5052783;28;19919;-85
2022/09/26 00:45:08;;;;;;;;;;;13.10;99.90;;;;;;5054141;28;20507;-87
2022/09/26 00:47:49;;;;;;;8.10;4.88;;;13.00;99.90;;;;;;5053034;28;19905;-88
2022/09/26 00:50:20;;;;;;;6.38;5.10;;;13.00;99.90;;;;;;5052832;28;20474;-84
2022/09/26 00:53:00;;;;;;;6.60;5.90;;;13.00;99.90;;;;;;5052648;28;20524;-86
2022/09/26 00:55:31;;;;;;;6.85;4.63;;;13.10;99.90;;;;;;5052379;28;20029;-85
2022/09/26 00:58:21;;;;;;;7.07;4.90;;;13.10;99.90;;;;;;5052077;28;20025;-86
2022/09/26 01:00:48;;;;;;;6.45;4.55;;;13.10;99.90;;;;;;5053515;28;20094;-84
2022/09/26 01:03:15;;;;;;;8.05;4.47;;;13.00;99.90;;;;;;5055124;28;20123;-86
2022/09/26 01:05:42;;;;;;;7.70;4.32;;;13.10;99.90;;;;;;5056874;28;20104;-86
2022/09/26 01:08:08;;;;;;;8.63;4.68;;;13.10;99.90;;;;;;5056504;28;20033;-85
2022/09/26 01:10:35;;;;;;;;;;;13.10;99.90;;;;;;5053502;28;20267;-86
2022/09/26 01:13:01;;;;;;;6.15;4.20;;;13.00;99.90;;;;;;5052271;28;19912;-86
2022/09/26 01:15:27;;;;;;;5.90;4.35;;;13.00;99.90;;;;;;5051346;28;20041;-85
2022/09/26 01:17:54;;;;;;;7.22;4.75;;;13.10;99.90;;;;;;5051893;28;20078;-84
2022/09/26 01:20:31;;;;;;;6.07;4.00;;;13.10;99.90;;;;;;5052098;28;20021;-87
2022/09/26 01:23:45;;;;;;;6.65;4.05;;;13.10;99.90;;;;;;5051767;28;20094;-87
2022/09/26 01:26:41;;;;;;;6.45;4.10;;;13.20;99.90;;;;;;5055186;28;20039;-86
2022/09/26 01:29:25;;;;;;;6.70;4.05;;;13.20;99.90;;;;;;5073029;28;20085;-87
2022/09/26 01:35:08;;;;;;;9.15;4.20;;;13.20;99.90;;;;;;5053100;28;20035;-86
2022/09/26 01:37:52;;;;;;;6.82;4.35;;;13.10;99.90;;;;;;5050291;28;20039;-85
2022/09/26 01:40:50;;;;;;;7.00;3.80;;;13.10;99.90;;;;;;5051573;28;20068;-85
2022/09/26 01:43:44;;;;;;;6.40;4.18;;;13.00;99.90;;;;;;5040270;28;20033;-86
2022/09/26 01:46:38;;;;;;;6.90;4.38;;;13.00;99.90;;;;;;5052588;28;20059;-85
2022/09/26 01:49:23;;;;;;;5.82;4.00;;;13.00;99.90;;;;;;5062137;28;20024;-85
2022/09/26 01:51:58;;;;;;;7.40;4.47;;;13.00;99.90;;;;;;5071561;28;20040;-87
2022/09/26 01:54:35;;;;;;;8.88;4.60;;;13.00;99.90;;;;;;5071834;28;20032;-87
2022/09/26 01:57:04;;;;;;;8.23;4.57;;;13.00;99.90;;;;;;5062607;28;20025;-90
2022/09/26 01:59:43;;;;;;;6.63;4.30;;;13.00;99.90;;;;;;5051703;28;20036;-85
2022/09/26 02:02:18;;;;;;;5.20;4.47;;;12.90;99.90;;;;;;5052133;28;20033;-87
2022/09/26 02:04:47;;;;;;;8.18;4.63;;;12.90;99.90;;;;;;5052309;28;20028;-87
2022/09/26 02:07:21;;;;;;;6.38;4.50;;;12.90;99.90;;;;;;5051541;28;20021;-87
2022/09/26 02:09:52;;;;;;;6.03;4.60;;;12.90;99.90;;;;;;5051157;28;20489;-87
2022/09/26 02:12:26;;;;;;;10.70;4.43;;;12.90;99.90;;;;;;5051137;28;20594;-87
2022/09/26 02:14:59;;;;;;;12.63;4.85;;;13.00;99.90;;;;;;5051215;28;20148;-87
2022/09/26 02:17:30;;;;;;;4.93;4.03;;;12.90;99.90;;;;;;5052483;28;20480;-88
2022/09/26 02:19:58;;;;;;;8.00;5.03;;;13.00;99.90;;;;;;5051110;28;20482;-87
2022/09/26 02:22:42;;;;;;;9.55;5.00;;;12.90;99.90;;;;;;5051321;28;20041;-87
2022/09/26 02:25:10;;;;;;;10.00;4.95;;;12.90;99.90;;;;;;5062765;28;20025;-86
2022/09/26 02:27:36;;;;;;;6.55;4.95;;;12.90;99.90;;;;;;5071036;28;20535;-84
2022/09/26 02:30:02;;;;;;;;;;;12.90;99.90;;;;;;5071084;28;20040;-84
2022/09/26 02:32:31;;;;;;;11.77;4.88;;;12.90;99.90;;;;;;5070720;28;19912;-84
2022/09/26 02:34:57;;;;;;;8.20;5.05;;;12.90;99.90;;;;;;5070894;28;20108;-85
2022/09/26 02:37:24;;;;;;;12.88;5.63;;;13.00;99.90;;;;;;5058903;28;20083;-86
2022/09/26 02:39:51;;;;;;;8.25;4.47;;;13.00;99.90;;;;;;5050851;28;20143;-85
2022/09/26 02:42:38;;;;;;;10.35;5.72;;;13.00;99.90;;;;;;5054489;28;20084;-86
2022/09/26 02:45:31;;;;;;;8.07;4.13;;;13.00;99.90;;;;;;5051729;28;20061;-85
2022/09/26 02:48:00;;;;;;;8.65;5.93;;;13.10;99.90;;;;;;5052073;28;20041;-86
2022/09/26 02:50:59;;;;;;;8.05;5.50;;;13.00;99.90;;;;;;5051088;28;20075;-85
2022/09/26 02:53:57;;;;;;;9.68;5.28;;;13.10;99.90;;;;;;5050973;28;20086;-86
2022/09/26 02:56:41;;;;;;;9.15;5.25;;;13.10;99.90;;;;;;5006973;28;20405;-86
2022/09/26 02:59:28;;;;;;;8.35;5.75;;;13.10;99.90;;;;;;5050939;28;20032;-87
2022/09/26 03:02:03;;;;;;;;;;;13.20;99.90;;;;;;5050721;28;20118;-87
2022/09/26 03:04:52;;;;;;;7.22;5.38;;;13.10;99.90;;;;;;5049421;28;19909;-86
2022/09/26 03:07:28;;;;;;;14.43;5.32;;;13.10;99.90;;;;;;5050920;28;20414;-86
2022/09/26 03:09:56;;;;;;;7.05;6.03;;;13.10;99.90;;;;;;5051853;28;20025;-87
2022/09/26 03:12:24;;;;;;;9.57;6.10;;;13.00;99.90;;;;;;5050266;28;20703;-85
2022/09/26 03:14:50;;;;;;;7.32;5.75;;;13.00;99.90;;;;;;5050525;28;20493;-85
2022/09/26 03:17:17;;;;;;;10.85;6.75;;;13.00;99.90;;;;;;5066087;28;20115;-86
2022/09/26 03:19:43;;;;;;;9.55;7.13;;;12.90;99.90;;;;;;5074911;28;20504;-84
2022/09/26 03:22:09;;;;;;;;;;;12.90;99.90;;;;;;5074720;28;20024;-85
2022/09/26 03:24:41;;;;;;;11.20;7.13;;;12.90;99.90;;;;;;5067525;28;20026;-87
2022/09/26 03:27:07;;;;;;;11.07;8.00;;;12.80;99.90;;;;;;5054499;28;20021;-86
2022/09/26 03:29:33;;;;;;;14.85;8.00;;;12.70;99.90;;;;;;5054247;28;20119;-84
2022/09/26 03:31:59;;;;;;;;;;;12.60;99.90;;;;;;5054031;28;20136;-85
2022/09/26 03:34:26;;;;;;;10.15;8.25;;;12.60;99.90;;;;;;5053842;28;19905;-85
2022/09/26 03:36:52;;;;;;;11.32;8.40;;;12.50;99.90;;;;;;5053942;28;20077;-85
2022/09/26 03:39:17;;;;;;;;;;;12.50;99.90;;;;;;5055355;28;20033;-84
2022/09/26 03:41:43;;;;;;;14.75;8.52;;;12.40;99.90;;;;;;5053651;28;19904;-83
2022/09/26 03:44:10;;;;;;;12.90;9.15;;;12.40;99.90;;;;;;5053775;28;20119;-86
2022/09/26 03:46:35;;;;;;;12.82;9.40;;;12.40;99.90;;;;;;5053334;28;20029;-85
2022/09/26 03:49:01;;;;;;;;;;;12.30;99.90;;;;;;5054413;28;20087;-85
2022/09/26 03:51:27;;;;;;;11.30;8.77;;;12.30;99.90;;;;;;5053463;28;19912;-86
2022/09/26 03:53:52;;;;;;;;;;;12.30;99.90;;;;;;5053287;28;20036;-85
2022/09/26 03:56:19;;;;;;;12.15;9.55;;;12.30;99.90;;;;;;5052993;28;19909;-84
2022/09/26 03:58:47;;;;;;;11.40;10.02;;;12.30;99.90;;;;;;5054309;28;20035;-84
2022/09/26 04:01:18;;;;;;;15.55;10.25;;;12.30;99.90;;;;;;5054061;28;20029;-86
2022/09/26 04:03:45;;;;;;;12.02;9.65;;;12.30;99.90;;;;;;5053845;28;20082;-86
2022/09/26 04:06:11;;;;;;;15.75;11.00;;;12.30;99.90;;;;;;5050720;28;20028;-85
2022/09/26 04:08:39;;;;;;;19.90;10.52;;;12.30;99.90;;;;;;5053259;28;20044;-83
2022/09/26 04:11:11;;;;;;;15.20;11.60;;;12.30;99.90;;;;;;5052978;28;20048;-85
2022/09/26 04:13:37;;;;;;;20.42;12.15;;;12.40;99.90;;;;;;5053003;28;20075;-85
2022/09/26 04:16:07;;;;;;;15.55;12.05;;;12.40;99.90;;;;;;5052725;28;20066;-84
2022/09/26 04:18:33;;;;;;;23.10;12.05;;;12.30;99.90;;;;;;5052955;28;20374;-85
2022/09/26 04:21:08;;;;;;;22.77;13.20;;;12.40;99.90;;;;;;5052981;28;20461;-85
2022/09/26 04:23:35;;;;;;;18.73;13.82;;;12.30;99.90;;;;;;5052608;28;20107;-84
2022/09/26 04:26:16;;;;;;;19.90;13.80;;;12.30;99.90;;;;;;5052097;28;20405;-85
2022/09/26 04:28:43;;;;;;;19.27;14.75;;;12.30;99.90;;;;;;5052169;28;20029;-84
2022/09/26 04:31:09;;;;;;;20.25;16.40;;;12.20;99.90;;;;;;5053705;28;20033;-85
2022/09/26 04:33:37;;;;;;;18.38;16.30;;;12.20;99.90;;;;;;5068063;28;20099;-85
2022/09/26 04:36:06;;;;;;;19.10;16.30;;;12.20;99.90;;;;;;5072373;28;20025;-85
2022/09/26 04:38:32;;;;;;;25.73;17.60;;;12.20;99.90;;;;;;5089462;28;20020;-85
2022/09/26 04:41:09;;;;;;;25.88;18.55;;;12.10;99.90;;;;;;5061868;28;20031;-85
2022/09/26 04:43:36;;;;;;;25.23;18.92;;;12.10;99.90;;;;;;5052246;28;20057;-84
2022/09/26 04:46:10;;;;;;;23.48;18.52;;;12.00;99.90;;;;;;5052106;28;20029;-84
2022/09/26 04:48:36;;;;;;;31.83;20.00;;;12.10;99.90;;;;;;5052169;28;20132;-85
2022/09/26 04:51:10;;;;;;;24.90;19.02;;;12.10;99.90;;;;;;5053565;28;20017;-84
2022/09/26 04:53:40;;;;;;;21.67;18.85;;;12.10;99.90;;;;;;5049627;28;20124;-83
2022/09/26 04:56:08;;;;;;;23.88;19.70;;;12.10;99.90;;;;;;5050928;28;20032;-83
2022/09/26 04:58:37;;;;;;;23.45;18.77;;;12.10;99.90;;;;;;5051034;28;20025;-84
2022/09/26 05:01:08;;;;;;;24.05;20.23;;;12.10;99.90;;;;;;5052307;28;20124;-84
2022/09/26 05:03:37;;;;;;;23.70;18.02;;;12.10;99.90;;;;;;5052609;28;20025;-86
2022/09/26 05:06:07;;;;;;;24.17;20.58;;;12.10;99.90;;;;;;5051541;28;20391;-83
2022/09/26 05:08:38;;;;;;;20.40;17.27;;;12.10;99.90;;;;;;5044833;28;20040;-85
2022/09/26 05:11:04;;;;;;;26.83;19.77;;;12.10;99.90;;;;;;5031678;28;20037;-84
2022/09/26 05:13:30;;;;;;;21.98;19.42;;;12.10;99.90;;;;;;5046585;28;20135;-84
2022/09/26 05:15:59;;;;;;;22.38;18.92;;;12.00;99.90;;;;;;5052584;28;20122;-85
2022/09/26 05:18:25;;;;;;;20.08;17.95;;;12.00;99.90;;;;;;5050573;28;20029;-84
2022/09/26 05:20:51;;;;;;;;;;;12.10;99.90;;;;;;5046911;28;20033;-85
2022/09/26 05:26:18;;;;;;;;;;;12.10;99.90;;;;;;5044151;28;19912;-84
2022/09/26 05:26:30;;;;;;;;;;;12.10;99.90;;;;;;5052873;28;19905;-83
2022/09/26 05:29:00;;;;;;;;;;;12.10;99.90;;;;;;5048759;28;19988;-86
2022/09/26 05:31:27;;;;;;;;;;;12.10;99.90;;;;;;5052256;28;20353;-87
2022/09/26 05:33:56;;;;;;;;;;;12.10;99.90;;;;;;5053536;28;19919;-86
2022/09/26 05:36:23;;;;;;;;;;;12.10;99.90;;;;;;5052214;28;20008;-84
2022/09/26 05:38:49;;;;;;;;;;;12.20;99.90;;;;;;5051737;28;19912;-85
2022/09/26 05:41:15;;;;;;;;;;;12.20;99.90;;;;;;5052109;28;19908;-86
2022/09/26 05:43:40;;;;;;;;;;;12.20;99.90;;;;;;5052126;28;20377;-86
2022/09/26 05:46:07;;;;;;;;;;;12.20;99.90;;;;;;5052236;28;19928;-87
2022/09/26 05:48:34;;;;;;;;;;;12.30;99.90;;;;;;5053156;28;19909;-85
2022/09/26 05:51:11;;;;;;;;;;;12.20;99.90;;;;;;5051855;28;19944;-85
2022/09/26 05:53:37;;;;;;;;;;;12.20;99.90;;;;;;5052172;28;19970;-86
2022/09/26 05:56:03;;;;;;;;;;;12.30;99.90;;;;;;5051897;28;20308;-87
2022/09/26 05:58:33;;;;;;;;;;;12.30;99.90;;;;;;5043631;28;19909;-85
2022/09/26 06:01:04;;;;;;;;;;;12.30;99.90;;;;;;5052055;28;20365;-86
2022/09/26 06:03:33;;;;;;;;;;;12.20;99.90;;;;;;5051562;28;19955;-85
2022/09/26 06:06:03;;;;;;;;;;;12.30;99.90;;;;;;5051514;28;19955;-86
2022/09/26 06:08:28;;;;;;;;;;;12.20;99.90;;;;;;5051670;28;19905;-86
2022/09/26 06:10:58;;;;;;;;;;;12.20;99.90;;;;;;5050180;28;19920;-85
2022/09/26 06:13:24;;;;;;;;;;;12.20;99.90;;;;;;5051830;28;20003;-86
2022/09/26 06:15:50;;;;;;;;;;;12.30;99.90;;;;;;5052785;28;19943;-85
2022/09/26 06:18:16;;;;;;;;;;;12.30;99.90;;;;;;5051893;28;20214;-85
2022/09/26 06:20:41;;;;;;;;;;;12.20;99.90;;;;;;5052501;28;19916;-85
2022/09/26 06:23:07;;;;;;;;;;;12.20;99.90;;;;;;5051360;28;19954;-85
2022/09/26 06:25:32;;;;;;;;;;;12.30;99.90;;;;;;5051326;28;20231;-86
2022/09/26 06:27:59;;;;;;;;;;;12.30;99.90;;;;;;5051186;28;19911;-86
2022/09/26 06:30:24;;;;;;;;;;;12.30;99.90;;;;;;5052221;28;19924;-85
2022/09/26 06:32:51;;;;;;;;;;;12.30;99.90;;;;;;5049767;28;19916;-85
2022/09/26 06:35:18;;;;;;;;;;;12.30;99.90;;;;;;5049034;28;19912;-84
2022/09/26 06:37:44;;;;;;;;;;;12.30;99.90;;;;;;5051112;28;19905;-85
2022/09/26 06:40:10;;;;;;;;;;;12.40;99.90;;;;;;5052357;28;20431;-86
2022/09/26 06:42:36;;;;;;;;;;;12.40;99.90;;;;;;5052714;28;19950;-86
2022/09/26 06:45:06;;;;;;;;;;;12.40;99.90;;;;;;5051161;28;20321;-87
2022/09/26 06:47:32;;;;;;;;;;;12.40;99.90;;;;;;5051063;28;19905;-85
2022/09/26 06:49:58;;;;;;;;;;;12.40;99.90;;;;;;5051858;28;20015;-84
2022/09/26 06:52:24;;;;;;;;;;;12.50;99.90;;;;;;5054547;28;20278;-87
2022/09/26 06:54:50;;;;;;;;;;;12.40;99.90;;;;;;5056907;28;19905;-84
2022/09/26 06:57:15;;;;;;;;;;;12.40;99.90;;;;;;5056165;28;19951;-85
2022/09/26 06:59:40;;;;;;;;;;;12.40;99.90;;;;;;5055026;28;19904;-85
2022/09/26 07:02:07;;;;;;;;;;;12.50;99.90;;;;;;5055175;28;20434;-86
2022/09/26 07:04:34;;;;;;;;;;;12.50;99.90;;;;;;5054947;28;19948;-86
2022/09/26 07:07:00;;;;;;;;;;;12.60;99.90;;;;;;5055518;28;19995;-86
2022/09/26 07:09:25;;;;;;;;;;;12.50;99.90;;;;;;5055574;28;19943;-86
2022/09/26 07:11:51;;;;;;;;;;;12.50;99.90;;;;;;5054775;28;19916;-86
2022/09/26 07:14:17;;;;;;;;;;;12.60;99.90;;;;;;5054996;28;19909;-85
2022/09/26 07:16:43;;;;;;;;;;;12.60;99.90;;;;;;5055773;28;20285;-87
2022/09/26 07:19:10;;;;;;;;;;;12.70;99.90;;;;;;5054859;28;19905;-86
2022/09/26 07:21:36;;;;;;;;;;;12.70;99.90;;;;;;5055018;28;19905;-86
2022/09/26 07:24:01;;;;;;;;;;;12.70;99.90;;;;;;5055707;28;20476;-86
2022/09/26 07:26:27;;;;;;;;;;;12.70;99.90;;;;;;5056271;28;19916;-86
2022/09/26 07:28:52;;;;;;;;;;;12.70;99.90;;;;;;5054562;28;19905;-86
2022/09/26 07:31:18;;;;;;;;;;;12.80;99.90;;;;;;5054645;28;19916;-86
2022/09/26 07:33:43;;;;;;;;;;;12.90;99.90;;;;;;5054678;28;19912;-86
2022/09/26 07:36:09;;;;;;;;;;;13.00;99.90;;;;;;5055871;28;19904;-86
2022/09/26 07:38:35;;;;;;;;;;;13.00;99.90;;;;;;5054394;28;19905;-86
2022/09/26 07:41:00;;;;;;;;;;;13.10;99.90;;;;;;5054805;28;20053;-86
2022/09/26 07:43:26;;;;;;;;;;;13.10;99.90;;;;;;5055445;28;19905;-86
2022/09/26 07:51:21;;;;;;;;;;;13.30;99.90;;;;;;5056033;28;19986;-86
2022/09/26 07:53:47;;;;;;;;;;;13.30;99.90;;;;;;5054336;28;19972;-86
2022/09/26 07:56:12;;;;;;;;;;;13.30;99.90;;;;;;5054234;28;19924;-86
2022/09/26 07:58:39;;;;;;;;;;;13.30;99.90;;;;;;5054149;28;20301;-86
2022/09/26 08:01:10;;;;;;;;;;;13.40;99.90;;;;;;5051428;28;19950;-86
2022/09/26 08:03:43;;;;;;;;;;;13.50;99.90;;;;;;5047769;28;19971;-86
2022/09/26 08:06:09;;;;;;;;;;;13.50;99.90;;;;;;5055186;28;19924;-86
2022/09/26 08:08:35;;;;;;;;;;;13.60;99.90;;;;;;5054216;28;19904;-86
2022/09/26 08:11:01;;;;;;;;;;;13.70;99.90;;;;;;5053643;28;19917;-86
2022/09/26 08:13:28;;;;;;;;;;;13.70;99.90;;;;;;5054472;28;19909;-86
2022/09/26 08:15:54;;;;;;;;;;;13.80;99.90;;;;;;5054147;28;19912;-87
2022/09/26 08:18:20;;;;;;;;;;;13.80;99.90;;;;;;5054481;28;19905;-87
2022/09/26 08:20:48;;;;;;;;;;;13.80;99.90;;;;;;5053970;28;19951;-86
2022/09/26 08:23:15;;;;;;;;;;;13.70;99.90;;;;;;5053929;28;19940;-87
2022/09/26 08:25:40;;;;;;;;;;;13.70;99.90;;;;;;5054198;28;19971;-86
2022/09/26 08:28:06;;;;;;;;;;;13.70;99.90;;;;;;5053953;28;19963;-87
2022/09/26 08:30:32;;;;;;;;;;;13.60;99.90;;;;;;5053945;28;19904;-86
2022/09/26 08:33:00;;;;;;;;;;;13.60;99.90;;;;;;5053834;28;20377;-86
2022/09/26 08:35:26;;;;;;;;;;;13.70;99.90;;;;;;5053698;28;20372;-86
2022/09/26 08:37:52;;;;;;;;;;;13.80;99.90;;;;;;5053847;28;19905;-86
2022/09/26 08:40:20;;;;;;;;;;;13.90;99.90;;;;;;5053619;28;20369;-87
2022/09/26 08:42:55;;;;;;;;;;;13.90;99.90;;;;;;5053483;28;19996;-87
2022/09/26 08:48:20;;;;;;;;;;;14.00;99.90;;;;;;5043209;28;19951;-87
2022/09/26 08:50:52;;;;;;;;;;;14.00;99.90;;;;;;5053258;28;19909;-87
2022/09/26 08:53:21;;;;;;;;;;;14.00;99.90;;;;;;5052859;28;19925;-87
2022/09/26 08:55:47;;;;;;;;;;;14.00;99.90;;;;;;5053074;28;19905;-86
2022/09/26 08:58:21;;;;;;;;;;;14.00;99.90;;;;;;5054165;28;19944;-85
2022/09/26 09:00:50;;;;;;;;;;;14.20;99.90;;;;;;5050953;28;20294;-86
2022/09/26 09:03:28;;;;;;;;;;;14.30;99.90;;;;;;5052369;28;19905;-87
2022/09/26 09:06:03;;;;;;;;;;;14.40;99.90;;;;;;5052805;28;20011;-87
2022/09/26 09:08:37;;;;;;;;;;;14.50;99.90;;;;;;5052713;28;20289;-88
2022/09/26 09:11:06;;;;;;;;;;;14.50;99.90;;;;;;5052710;28;19991;-87
2022/09/26 09:13:37;;;;;;;;;;;14.50;99.90;;;;;;5052396;28;20299;-87
2022/09/26 09:16:11;;;;;;;;;;;14.40;99.90;;;;;;5053405;28;19958;-86
2022/09/26 09:18:37;;;;;;;;;;;14.40;99.90;;;;;;5053041;28;19978;-86
2022/09/26 09:21:17;;;;;;;;;;;14.40;99.90;;;;;;5052932;28;19999;-87
2022/09/26 09:23:57;;;;;;;;;;;14.30;99.90;;;;;;5052622;28;19964;-87
2022/09/26 09:26:39;;;;;;;;;;;14.30;99.90;;;;;;5053011;28;20603;-87
2022/09/26 09:29:17;;;;;;;;;;;14.20;99.90;;;;;;5052692;28;19904;-87
2022/09/26 09:31:43;;;;;;;;;;;14.20;99.90;;;;;;5052037;28;19913;-86
2022/09/26 09:34:17;;;;;;;;;;;14.20;99.90;;;;;;5052308;28;19905;-87
2022/09/26 09:36:48;;;;;;;;;;;14.20;99.90;;;;;;5052386;28;19908;-87
2022/09/26 09:39:25;;;;;;;;;;;14.30;99.90;;;;;;5052594;28;20409;-87
2022/09/26 09:41:53;;;;;;;;;;;14.30;99.90;;;;;;5054938;28;19932;-87
2022/09/26 09:44:28;;;;;;;;;;;14.40;99.90;;;;;;5060667;28;20003;-88
2022/09/26 09:46:53;;;;;;;;;;;14.40;99.90;;;;;;5055010;28;19913;-89
2022/09/26 09:49:20;;;;;;;;;;;14.40;99.90;;;;;;5035099;28;19909;-87
2022/09/26 09:51:50;;;;;;;;;;;14.40;99.90;;;;;;5036116;28;20285;-88
2022/09/26 09:54:34;;;;;;;;;;;14.50;99.90;;;;;;5072705;28;20257;-88
2022/09/26 09:57:07;;;;;;;;;;;14.50;99.90;;;;;;5072718;28;19904;-88
2022/09/26 09:59:53;;;;;;;;;;;14.40;99.90;;;;;;5072459;28;19912;-88
2022/09/26 10:02:31;;;;;;;;;;;14.40;99.90;;;;;;5052611;28;19904;-88
2022/09/26 10:04:56;;;;;;;;;;;14.30;99.90;;;;;;5052420;28;19904;-88
2022/09/26 10:07:22;;;;;;;;;;;14.30;99.90;;;;;;5052430;28;19916;-88
2022/09/26 10:09:50;;;;;;;;;;;14.30;99.90;;;;;;5052014;28;20017;-88
2022/09/26 10:12:20;;;;;;;;;;;14.30;99.90;;;;;;5052103;28;19917;-87
2022/09/26 10:14:49;;;;;;;;;;;14.40;99.90;;;;;;5052423;28;19974;-88
2022/09/26 10:17:18;;;;;;;;;;;14.40;99.90;;;;;;5052443;28;19908;-87
2022/09/26 10:19:43;;;;;;;;;;;14.40;99.90;;;;;;5052077;28;19909;-87
2022/09/26 10:22:31;;;;;;;;;;;14.40;99.90;;;;;;5053098;28;19904;-88
2022/09/26 10:25:26;;;;;;;;;;;14.40;99.90;;;;;;5038573;28;19911;-88
2022/09/26 10:27:54;;;;;;;;;;;14.50;99.90;;;;;;5039015;28;19905;-88
2022/09/26 10:30:24;;;;;;;;;;;14.60;99.90;;;;;;5052152;28;19909;-89
2022/09/26 10:32:52;;;;;;;;;;;14.70;99.90;;;;;;5053492;28;19913;-88
2022/09/26 10:35:23;;;;;;;;;;;14.80;99.90;;;;;;5052173;28;19909;-88
2022/09/26 10:37:59;;;;;;;;;;;14.90;99.90;;;;;;5053034;28;19912;-88
2022/09/26 10:40:44;;;;;;;;;;;15.10;99.90;;;;;;5051716;28;19912;-88
2022/09/26 10:43:24;;;;;;;;;;;15.20;99.90;;;;;;5051989;28;20373;-89
2022/09/26 10:45:54;;;;;;;;;;;15.40;99.90;;;;;;5052032;28;20426;-88
2022/09/26 10:48:26;;;;;;;;;;;15.40;99.90;;;;;;5051849;28;19939;-89
2022/09/26 10:50:59;;;;;;;;;;;15.40;99.90;;;;;;5052045;28;19927;-88
2022/09/26 10:53:25;;;;;;;;;;;15.40;99.90;;;;;;5051929;28;19917;-88
2022/09/26 10:55:55;;;;;;;;;;;15.30;99.90;;;;;;5054274;28;19911;-87
2022/09/26 10:58:22;;;;;;;;;;;15.20;99.90;;;;;;5072986;28;19946;-88
2022/09/26 11:00:49;;;;;;;;;;;15.20;99.90;;;;;;5073208;28;19905;-88
2022/09/26 11:03:16;;;;;;;;;;;15.20;99.90;;;;;;5055188;28;19985;-89
2022/09/26 11:05:58;;;;;;;;;;;15.30;99.90;;;;;;5051595;28;19954;-87
2022/09/26 11:08:28;;;;;;;;;;;15.20;99.90;;;;;;5051401;28;19905;-88
2022/09/26 11:10:58;;;;;;;;;;;15.20;99.90;;;;;;5051408;28;19964;-89
2022/09/26 11:13:24;;;;;;;;;;;15.20;99.90;;;;;;5052469;28;19956;-88
2022/09/26 11:16:09;;;;;;;;;;;15.20;99.90;;;;;;5051321;28;20431;-88
2022/09/26 11:18:41;;;;;;;;;;;15.20;99.90;;;;;;5052536;28;19912;-88
2022/09/26 11:21:14;;;;;;;;;;;15.10;99.90;;;;;;5052558;28;19987;-87
2022/09/26 11:23:49;;;;;;;;;;;15.10;99.90;;;;;;5051411;28;19908;-87
2022/09/26 11:26:20;;;;;;;;;;;15.10;99.90;;;;;;5049803;28;19972;-88
2022/09/26 11:29:00;;;;;;;;;;;15.10;99.90;;;;;;5049736;28;19974;-88
2022/09/26 11:31:27;;;;;;;;;;;15.10;99.90;;;;;;5052553;28;20486;-89
2022/09/26 11:33:57;;;;;;;;;;;15.00;99.90;;;;;;5049974;28;19916;-87
2022/09/26 11:36:35;;;;;;;;;;;15.00;99.90;;;;;;5050906;28;19905;-87
2022/09/26 11:39:17;;;;;;;;;;;15.00;99.90;;;;;;5055455;28;19905;-88
2022/09/26 11:41:42;;;;;;;;;;;15.00;99.90;;;;;;5054407;28;19949;-87
2022/09/26 11:44:16;;;;;;;;;;;15.00;99.90;;;;;;5054684;28;19904;-88
2022/09/26 11:46:47;;;;;;;;;;;15.00;99.90;;;;;;5054719;28;20373;-88
2022/09/26 11:49:13;;;;;;;;;;;15.00;99.90;;;;;;5055440;28;19915;-88
2022/09/26 11:51:48;;;;;;;;;;;15.10;99.90;;;;;;5055622;28;19913;-87
2022/09/26 11:54:19;;;;;;;;;;;15.10;99.90;;;;;;5054433;28;19905;-89
2022/09/26 11:56:52;;;;;;;;;;;15.10;99.90;;;;;;5054332;28;20436;-88
2022/09/26 11:59:24;;;;;;;;;;;15.10;99.90;;;;;;5054255;28;19922;-88
2022/09/26 12:01:53;;;;;;;;;;;15.10;99.90;;;;;;5055168;28;19904;-87
2022/09/26 12:04:37;;;;;;;;;;;15.10;99.90;;;;;;5054140;28;20286;-88
2022/09/26 12:07:18;;;;;;;;;;;15.10;99.90;;;;;;5054023;28;19904;-88
2022/09/26 12:10:07;;;;;;;;;;;15.10;99.90;;;;;;5054855;28;19909;-87
2022/09/26 12:12:47;;;;;;;;;;;15.10;99.90;;;;;;5054693;28;19924;-87
2022/09/26 12:15:21;;;;;;;;;;;15.20;99.90;;;;;;5054235;28;19909;-88
2022/09/26 12:17:59;;;;;;;;;;;15.30;99.90;;;;;;5055216;28;19972;-88
2022/09/26 12:20:29;;;;;;;;;;;15.30;99.90;;;;;;5053806;28;20293;-88
2022/09/26 12:23:03;;;;;;;;;;;15.40;99.90;;;;;;5054993;28;19904;-88
2022/09/26 12:25:35;;;;;;;;;;;15.50;99.90;;;;;;5054051;28;20384;-88
2022/09/26 12:28:15;;;;;;;;;;;15.50;99.90;;;;;;5054603;28;19970;-88
2022/09/26 12:30:59;;;;;;;;;;;15.60;99.90;;;;;;5065422;28;19896;-88
2022/09/26 12:33:40;;;;;;;;;;;15.60;99.90;;;;;;5076566;28;19916;-88
2022/09/26 12:36:24;;;;;;;;;;;15.50;99.90;;;;;;5055685;28;20270;-89
2022/09/26 12:39:08;;;;;;;;;;;15.40;99.90;;;;;;5055583;28;19905;-88
2022/09/26 12:41:37;;;;;;;;;;;15.40;99.90;;;;;;5054934;28;20389;-88
2022/09/26 12:44:13;;;;;;;;;;;15.40;99.90;;;;;;5054723;28;19915;-88
2022/09/26 12:46:51;;;;;;;;;;;15.40;99.90;;;;;;5054768;28;19905;-88
2022/09/26 12:49:24;;;;;;;;;;;15.50;99.90;;;;;;5054054;28;19909;-88
2022/09/26 12:51:51;;;;;;;;;;;15.70;99.90;;;;;;5053938;28;19908;-87
2022/09/26 12:54:16;;;;;;;;;;;16.00;99.90;;;;;;5054739;28;19908;-87
2022/09/26 12:56:55;;;;;;;;;;;16.30;99.90;;;;;;5054063;28;19912;-88
2022/09/26 12:59:21;;;;;;;;;;;16.50;99.90;;;;;;5054342;28;19911;-89
2022/09/26 13:01:57;;;;;;;;;;;16.60;99.90;;;;;;5054545;28;19905;-88
2022/09/26 13:04:46;;;;;;;;;;;16.60;99.90;;;;;;5073939;28;19905;-89
2022/09/26 13:07:17;;;;;;;;;;;16.70;99.90;;;;;;5072976;28;19908;-89
2022/09/26 13:10:05;;;;;;;;;;;16.80;99.90;;;;;;5054498;28;19944;-87
2022/09/26 13:12:41;;;;;;;;;;;16.70;99.90;;;;;;5052690;28;19917;-88
2022/09/26 13:15:13;;;;;;;;;;;16.80;99.90;;;;;;5054313;28;19905;-88
2022/09/26 13:17:41;;;;;;;;;;;16.80;99.90;;;;;;5072224;28;19905;-88
2022/09/26 13:20:16;;;;;;;;;;;16.90;99.90;;;;;;5072555;28;19905;-87
2022/09/26 13:22:44;;;;;;;;;;;16.90;99.90;;;;;;5073853;28;19908;-86
2022/09/26 13:25:10;;;;;;;;;;;16.90;99.90;;;;;;5058660;28;19905;-88
2022/09/26 13:27:45;;;;;;;;;;;16.90;99.90;;;;;;5053744;28;19967;-88
2022/09/26 13:30:18;;;;;;;;;;;16.90;99.90;;;;;;5053906;28;20059;-89
2022/09/26 13:32:49;;;;;;;;;;;16.80;99.90;;;;;;5053686;28;19920;-88
2022/09/26 13:35:21;;;;;;;;;;;16.80;99.90;;;;;;5052572;28;20377;-88
2022/09/26 13:38:07;;;;;;;;;;;16.80;99.90;;;;;;5053375;28;19911;-86
2022/09/26 13:40:33;;;;;;;;;;;16.90;99.90;;;;;;5053677;28;19905;-88
2022/09/26 13:43:17;;;;;;;;;;;16.90;99.90;;;;;;5052599;28;20682;-89
2022/09/26 13:45:47;;;;;;;;;;;17.00;99.90;;;;;;5052676;28;19905;-87
2022/09/26 13:48:48;;;;;;;;;;;17.20;99.90;;;;;;5052300;28;19905;-88
2022/09/26 13:51:25;;;;;;;;;;;17.20;99.90;;;;;;5007660;28;19908;-88
2022/09/26 13:53:51;;;;;;;;;;;17.20;99.90;;;;;;5051999;28;19932;-89
2022/09/26 13:56:35;;;;;;;;;;;17.20;99.90;;;;;;5060369;28;19905;-88
2022/09/26 13:59:07;;;;;;;;;;;17.30;99.90;;;;;;5072389;28;19935;-87
2022/09/26 14:01:32;;;;;;;;;;;17.20;99.90;;;;;;5071883;28;19991;-88
2022/09/26 14:04:16;;;;;;;;;;;17.20;99.90;;;;;;5054671;28;19951;-88
2022/09/26 14:07:00;;;;;;;;;;;17.20;99.90;;;;;;5052697;28;19955;-89
2022/09/26 14:09:39;;;;;;;;;;;17.10;99.90;;;;;;5052116;28;19990;-90
2022/09/26 14:12:19;;;;;;;;;;;17.10;99.90;;;;;;5050983;28;19927;-88
2022/09/26 14:15:06;;;;;;;;;;;17.10;99.90;;;;;;5052080;28;20270;-88
2022/09/26 14:17:37;;;;;;;;;;;17.10;99.90;;;;;;5051892;28;19905;-89